Sand Springs, Arizona
Current Conditions -  °F | °C
As of 10:56 AM on Sunday 23 Nov 2014 (Local Time) from KINW Reporting Station
Clear Clear  
Wind Chill: 50°   Ceiling: Unl
Heat Index: 50°   Visibility: 10mi
Dew Point:   Wind: 22mph
Humidity: 15%   Direction: 320°NW
Pressure: 30.14"   Gusts: 31mph
Location:  35.8773°N, 110.619°W
Report Text: KINW 231756Z AUTO 32019G27KT 10SM CLR 10/M16 A3014 RMK AO2 PK WND 30029/1741 SLP181 T01001156 10100 20039 51025
Loading
Personal Weather Stations






























Interactive Weather Map New forecast layout! Learn more

10-Day Weather Forecast

Advertisements
Track Severe Weather on mobile